createdAt,value
2022-08-17T00:02:25.960Z,91229.75
2022-08-17T00:04:54.962Z,91222.94
2022-08-17T00:07:22.333Z,91210.53
2022-08-17T00:09:49.039Z,91209.66
2022-08-17T00:12:42.663Z,91204.31
2022-08-17T00:15:02.992Z,91198.88
2022-08-17T00:17:29.743Z,91194.91
2022-08-17T00:19:56.401Z,91185.94
2022-08-17T00:22:35.208Z,91182.91
2022-08-17T00:25:12.129Z,91196.47
2022-08-17T00:27:39.445Z,91189.75
2022-08-17T00:30:09.786Z,91195.88
2022-08-17T00:33:22.741Z,91185.81
2022-08-17T00:35:33.961Z,91188.09
2022-08-17T00:38:00.688Z,91192.25
2022-08-17T00:40:27.610Z,91187.38
2022-08-17T00:43:23.609Z,91168.66
2022-08-17T00:45:50.824Z,91194.28
2022-08-17T00:48:29.340Z,91199.53
2022-08-17T00:51:32.594Z,91200.28
2022-08-17T00:54:24.016Z,91202.94
2022-08-17T00:57:04.603Z,91201.69
2022-08-17T00:59:37.669Z,91207.41
2022-08-17T01:02:06.477Z,91197.66
2022-08-17T01:04:33.627Z,91215.53
2022-08-17T01:07:02.166Z,91209.44
2022-08-17T01:09:29.089Z,91208.69
2022-08-17T01:11:55.967Z,91200.19
2022-08-17T01:14:24.924Z,91207.13
2022-08-17T01:16:54.266Z,91211.25
2022-08-17T01:19:28.853Z,91214.03
2022-08-17T01:22:10.806Z,91199.91
2022-08-17T01:24:40.754Z,91205.00
2022-08-17T01:27:10.264Z,91202.66
2022-08-17T01:29:39.688Z,91198.16
2022-08-17T01:32:08.369Z,91204.13
2022-08-17T01:34:42.726Z,91194.28
2022-08-17T01:37:12.731Z,91201.84
2022-08-17T01:39:45.511Z,91180.78
2022-08-17T01:42:28.410Z,91191.97
2022-08-17T01:45:04.479Z,91186.44
2022-08-17T01:47:31.413Z,91173.44
2022-08-17T01:49:58.126Z,91179.69
2022-08-17T01:52:24.940Z,91186.78
2022-08-17T01:54:52.880Z,91178.50
2022-08-17T01:57:22.383Z,91176.63
2022-08-17T01:59:49.169Z,91181.38
2022-08-17T02:02:31.231Z,91180.84
2022-08-17T02:04:58.465Z,91189.56
2022-08-17T02:07:26.929Z,91185.19
2022-08-17T02:09:53.958Z,91181.22
2022-08-17T02:12:39.299Z,91176.50
2022-08-17T02:15:08.864Z,91193.19
2022-08-17T02:17:35.992Z,91185.66
2022-08-17T02:20:04.794Z,91192.22
2022-08-17T02:22:31.546Z,91186.00
2022-08-17T02:25:02.185Z,91195.28
2022-08-17T02:27:29.979Z,91196.88
2022-08-17T02:29:57.088Z,91198.94
2022-08-17T02:32:28.185Z,91195.44
2022-08-17T02:34:56.998Z,91200.66
2022-08-17T02:37:24.533Z,91195.31
2022-08-17T02:39:51.309Z,91191.66
2022-08-17T02:42:18.527Z,91197.06
2022-08-17T02:44:45.273Z,91197.78
2022-08-17T02:47:12.829Z,91203.66
2022-08-17T02:49:39.513Z,91209.41
2022-08-17T02:52:07.526Z,91202.09
2022-08-17T02:54:39.196Z,91197.78
2022-08-17T02:57:08.874Z,91204.69
2022-08-17T02:59:35.629Z,91201.38
2022-08-17T03:02:08.478Z,91194.78
2022-08-17T03:04:38.606Z,91200.44
2022-08-17T03:07:05.823Z,91206.34
2022-08-17T03:09:33.077Z,91207.84
2022-08-17T03:12:12.911Z,91217.72
2022-08-17T03:14:43.860Z,91219.19
2022-08-17T03:17:12.813Z,91209.38
2022-08-17T03:19:47.812Z,91218.44
2022-08-17T03:22:37.357Z,91221.53
2022-08-17T03:25:01.271Z,91215.44
2022-08-17T03:27:28.901Z,91213.19
2022-08-17T03:29:55.570Z,91227.97
2022-08-17T03:32:22.347Z,91227.63
2022-08-17T03:34:49.014Z,91233.84
2022-08-17T03:37:15.908Z,91222.13
2022-08-17T03:39:43.067Z,91219.44
2022-08-17T03:42:32.583Z,91220.09
2022-08-17T03:45:04.824Z,91220.09
2022-08-17T03:47:50.369Z,91237.41
2022-08-17T03:50:36.908Z,91236.72
2022-08-17T03:53:29.274Z,91236.75
2022-08-17T03:56:21.641Z,91239.78
2022-08-17T03:58:48.422Z,91244.31
2022-08-17T04:01:15.494Z,91243.59
2022-08-17T04:03:42.166Z,91243.28
2022-08-17T04:06:09.060Z,91244.38
2022-08-17T04:08:35.814Z,91248.06
2022-08-17T04:11:05.676Z,91250.03
2022-08-17T04:13:32.443Z,91255.94
2022-08-17T04:15:59.986Z,91258.31
2022-08-17T04:18:26.758Z,91253.28
2022-08-17T04:20:53.721Z,91247.53
2022-08-17T04:23:21.246Z,91247.06
2022-08-17T04:25:50.280Z,91246.84
2022-08-17T04:28:18.988Z,91255.84
2022-08-17T04:30:47.480Z,91250.78
2022-08-17T04:33:17.711Z,91241.56
2022-08-17T04:35:58.259Z,91255.72
2022-08-17T04:38:30.085Z,91249.97
2022-08-17T04:41:17.594Z,91253.28
2022-08-17T04:43:48.354Z,91247.94
2022-08-17T04:46:19.953Z,91255.28
2022-08-17T04:48:50.556Z,91251.78
2022-08-17T04:51:22.794Z,91259.94
2022-08-17T04:53:55.216Z,91251.19
2022-08-17T04:56:24.961Z,91245.06
2022-08-17T04:58:54.417Z,91248.06
2022-08-17T05:01:23.850Z,91245.69
2022-08-17T05:03:59.194Z,91250.59
2022-08-17T05:06:29.960Z,91252.75
2022-08-17T05:08:58.611Z,91246.66
2022-08-17T05:11:28.041Z,91247.66
2022-08-17T05:13:56.611Z,91244.97
2022-08-17T05:16:24.987Z,91249.16
2022-08-17T05:18:52.709Z,91249.72
2022-08-17T05:21:21.104Z,91251.91
2022-08-17T05:23:50.332Z,91260.06
2022-08-17T05:26:26.892Z,91247.09
2022-08-17T05:28:58.418Z,91248.09
2022-08-17T05:31:29.519Z,91254.91
2022-08-17T05:33:56.327Z,91248.66
2022-08-17T05:36:42.780Z,91249.28
2022-08-17T05:39:15.920Z,91243.28
2022-08-17T05:41:47.955Z,91243.72
2022-08-17T05:44:16.545Z,91240.78
2022-08-17T05:46:49.345Z,91235.72
2022-08-17T05:49:23.378Z,91232.75
2022-08-17T05:51:53.087Z,91237.44
2022-08-17T05:54:57.025Z,91241.63
2022-08-17T05:57:44.793Z,91235.28
2022-08-17T06:00:26.253Z,91234.28
2022-08-17T06:03:16.174Z,91231.38
2022-08-17T06:05:42.882Z,91227.81
2022-08-17T06:08:19.356Z,91219.28
2022-08-17T06:11:01.274Z,91228.94
2022-08-17T06:13:40.936Z,91220.38
2022-08-17T06:16:33.213Z,91226.91
2022-08-17T06:19:06.393Z,91210.16
2022-08-17T06:21:42.685Z,91225.03
2022-08-17T06:24:26.357Z,91227.78
2022-08-17T06:26:58.244Z,91222.00
2022-08-17T06:29:43.983Z,91229.59
2022-08-17T06:32:12.979Z,91224.03
2022-08-17T06:34:41.857Z,91224.44
2022-08-17T06:37:21.829Z,91214.56
2022-08-17T06:39:57.671Z,91211.66
2022-08-17T06:43:05.616Z,91201.44
2022-08-17T06:45:49.387Z,91208.06
2022-08-17T06:48:24.511Z,91189.63
2022-08-17T06:51:00.565Z,91197.91
2022-08-17T06:53:41.471Z,91204.06
2022-08-17T06:56:11.702Z,91194.41
2022-08-17T06:58:42.001Z,91194.97
2022-08-17T07:01:23.337Z,91196.66
2022-08-17T07:04:14.362Z,91198.88
2022-08-17T07:06:49.299Z,91199.09
2022-08-17T07:09:23.459Z,91193.84
2022-08-17T07:11:59.759Z,91192.94
2022-08-17T07:14:48.920Z,91198.00
2022-08-17T07:17:18.448Z,91198.69
2022-08-17T07:19:51.786Z,91186.97
2022-08-17T07:22:30.799Z,91191.72
2022-08-17T07:25:20.898Z,91195.56
2022-08-17T07:27:51.439Z,91191.56
2022-08-17T07:30:44.682Z,91183.91
2022-08-17T07:33:23.931Z,91195.97
2022-08-17T07:35:51.051Z,91195.88
2022-08-17T07:38:32.189Z,91195.66
2022-08-17T07:41:03.862Z,91193.06
2022-08-17T07:43:52.895Z,91192.72
2022-08-17T07:47:06.115Z,91197.97
2022-08-17T07:49:34.534Z,91190.28
2022-08-17T07:52:48.422Z,91193.16
2022-08-17T07:54:52.558Z,91183.31
2022-08-17T07:57:30.476Z,91186.81
2022-08-17T08:00:01.269Z,91186.00
2022-08-17T08:02:38.738Z,91189.81
2022-08-17T08:05:30.748Z,91180.88
2022-08-17T08:08:26.579Z,91188.06
2022-08-17T08:11:11.323Z,91174.56
2022-08-17T08:13:44.198Z,91184.56
2022-08-17T08:16:34.364Z,91175.81
2022-08-17T08:19:02.185Z,91175.28
2022-08-17T08:21:54.937Z,91181.09
2022-08-17T08:24:46.533Z,91185.47
2022-08-17T08:27:49.649Z,91183.63
2022-08-17T08:30:21.369Z,91178.31
2022-08-17T08:33:15.329Z,91174.66
2022-08-17T08:35:55.773Z,91175.63
2022-08-17T08:38:39.205Z,91186.09
2022-08-17T08:41:37.172Z,91188.09
2022-08-17T08:44:13.438Z,91176.00
2022-08-17T08:46:46.595Z,91182.34
2022-08-17T08:50:01.163Z,91175.75
2022-08-17T08:53:02.416Z,91172.88
2022-08-17T08:55:56.012Z,91182.34
2022-08-17T08:58:56.177Z,91184.78
2022-08-17T09:01:25.537Z,91179.34
2022-08-17T09:04:24.288Z,91188.03
2022-08-17T09:07:09.326Z,91188.03
2022-08-17T09:09:35.949Z,91191.22
2022-08-17T09:12:20.045Z,91185.72
2022-08-17T09:15:12.298Z,91184.53
2022-08-17T09:18:59.018Z,91180.81
2022-08-17T09:21:01.691Z,91181.06
2022-08-17T09:23:34.308Z,91183.00
2022-08-17T09:26:16.292Z,91181.31
2022-08-17T09:28:55.944Z,91159.25
2022-08-17T09:31:48.929Z,91177.88
2022-08-17T09:34:31.885Z,91182.50
2022-08-17T09:37:15.154Z,91190.84
2022-08-17T09:40:09.668Z,91197.28
2022-08-17T09:42:46.945Z,91183.94
2022-08-17T09:45:40.501Z,91194.47
2022-08-17T09:48:19.668Z,91194.53
2022-08-17T09:51:04.614Z,91195.59
2022-08-17T09:53:34.004Z,91199.97
2022-08-17T09:56:09.092Z,91204.53
2022-08-17T09:58:44.767Z,91204.41
2022-08-17T10:01:36.821Z,91197.38
2022-08-17T10:04:14.253Z,91196.25
2022-08-17T10:07:07.183Z,91203.41
2022-08-17T10:09:55.748Z,91200.25
2022-08-17T10:12:47.183Z,91192.63
2022-08-17T10:15:14.107Z,91196.03
2022-08-17T10:18:12.356Z,91194.72
2022-08-17T10:20:52.387Z,91191.59
2022-08-17T10:23:53.503Z,91184.66
2022-08-17T10:26:25.396Z,91194.72
2022-08-17T10:28:59.434Z,91181.00
2022-08-17T10:31:35.049Z,91176.75
2022-08-17T10:34:21.075Z,91176.53
2022-08-17T10:37:09.365Z,91183.09
2022-08-17T10:40:07.336Z,91171.34
2022-08-17T10:42:46.970Z,91170.97
2022-08-17T10:45:26.215Z,91167.81
2022-08-17T10:48:06.832Z,91166.59
2022-08-17T10:51:12.224Z,91153.31
2022-08-17T10:53:42.543Z,91160.84
2022-08-17T10:56:12.386Z,91158.41
2022-08-17T10:59:01.093Z,91160.34
2022-08-17T11:01:38.007Z,91152.69
2022-08-17T11:04:49.015Z,91148.06
2022-08-17T11:07:54.341Z,91146.38
2022-08-17T11:10:43.266Z,91144.59
2022-08-17T11:13:30.332Z,91144.94
2022-08-17T11:16:03.562Z,91139.09
2022-08-17T11:19:08.664Z,91135.47
2022-08-17T11:22:11.939Z,91140.13
2022-08-17T11:24:48.349Z,91136.44
2022-08-17T11:27:29.889Z,91138.94
2022-08-17T11:30:09.134Z,91126.88
2022-08-17T11:32:52.223Z,91132.91
2022-08-17T11:35:21.542Z,91138.06
2022-08-17T11:38:03.224Z,91131.72
2022-08-17T11:40:41.069Z,91131.88
2022-08-17T11:43:45.844Z,91140.91
2022-08-17T11:46:56.136Z,91136.44
2022-08-17T11:50:09.966Z,91119.19
2022-08-17T11:52:46.072Z,91127.69
2022-08-17T11:55:36.342Z,91132.59
2022-08-17T11:58:26.558Z,91130.06
2022-08-17T12:00:57.785Z,91128.09
2022-08-17T12:03:33.527Z,91133.66
2022-08-17T12:06:21.491Z,91127.88
2022-08-17T12:08:59.803Z,91108.41
2022-08-17T12:11:55.430Z,91119.50
2022-08-17T12:14:51.385Z,91125.72
2022-08-17T12:17:29.588Z,91123.75
2022-08-17T12:20:23.162Z,91128.91
2022-08-17T12:23:01.431Z,91129.16
2022-08-17T12:25:35.769Z,91127.78
2022-08-17T12:28:05.962Z,91126.25
2022-08-17T12:30:37.943Z,91119.88
2022-08-17T12:33:25.477Z,91117.41
2022-08-17T12:36:06.619Z,91122.63
2022-08-17T12:38:36.907Z,91116.72
2022-08-17T12:41:25.272Z,91111.56
2022-08-17T12:44:05.782Z,91108.63
2022-08-17T12:46:48.412Z,91115.03
2022-08-17T12:49:39.849Z,91114.53
2022-08-17T12:52:38.555Z,91116.72
2022-08-17T12:55:25.317Z,91112.56
2022-08-17T12:57:58.547Z,91114.03
2022-08-17T13:00:41.479Z,91115.00
2022-08-17T13:03:22.148Z,91087.50
2022-08-17T13:06:03.090Z,91103.22
2022-08-17T13:08:43.794Z,91109.38
2022-08-17T13:11:19.147Z,91109.34
2022-08-17T13:13:56.401Z,91106.16
2022-08-17T13:16:26.589Z,91094.16
2022-08-17T13:19:09.156Z,91096.84
2022-08-17T13:21:38.026Z,91103.97
2022-08-17T13:24:10.594Z,91095.38
2022-08-17T13:26:41.987Z,91091.69
2022-08-17T13:29:24.029Z,91095.09
2022-08-17T13:32:13.000Z,91101.66
2022-08-17T13:35:07.802Z,91107.47
2022-08-17T13:37:36.628Z,91106.28
2022-08-17T13:40:09.420Z,91105.81
2022-08-17T13:42:50.425Z,91113.84
2022-08-17T13:45:36.140Z,91111.63
2022-08-17T13:48:11.820Z,91113.16
2022-08-17T13:50:59.900Z,91107.00
2022-08-17T13:53:32.986Z,91116.06
2022-08-17T13:56:33.279Z,91118.78
2022-08-17T13:59:09.066Z,91128.31
2022-08-17T14:01:37.761Z,91123.22
2022-08-17T14:04:08.789Z,91109.75
2022-08-17T14:07:12.078Z,91118.88
2022-08-17T14:09:56.599Z,91109.53
2022-08-17T14:12:26.041Z,91115.72
2022-08-17T14:14:55.056Z,91112.78
2022-08-17T14:17:23.025Z,91114.28
2022-08-17T14:19:51.231Z,91106.66
2022-08-17T14:22:28.596Z,91107.63
2022-08-17T14:24:58.173Z,91114.97
2022-08-17T14:27:29.060Z,91117.19
2022-08-17T14:29:58.013Z,91104.53
2022-08-17T14:32:31.153Z,91118.03
2022-08-17T14:34:59.664Z,91113.44
2022-08-17T14:37:28.927Z,91121.31
2022-08-17T14:39:57.833Z,91137.69
2022-08-17T14:42:28.847Z,91135.63
2022-08-17T14:44:56.559Z,91130.63
2022-08-17T14:47:23.630Z,91128.97
2022-08-17T14:49:50.483Z,91126.78
2022-08-17T14:52:23.059Z,91131.56
2022-08-17T14:54:54.676Z,91111.56
2022-08-17T14:57:33.546Z,91125.03
2022-08-17T15:00:01.669Z,91129.09
2022-08-17T15:02:30.702Z,91132.03
2022-08-17T15:05:02.961Z,91137.09
2022-08-17T15:07:30.397Z,91145.25
2022-08-17T15:09:58.683Z,91141.81
2022-08-17T15:12:32.770Z,91134.91
2022-08-17T15:15:04.726Z,91133.44
2022-08-17T15:17:45.234Z,91131.19
2022-08-17T15:20:22.176Z,91141.78
2022-08-17T15:22:59.209Z,91139.91
2022-08-17T15:25:27.913Z,91137.47
2022-08-17T15:27:56.166Z,91137.63
2022-08-17T15:30:23.781Z,91130.78
2022-08-17T15:32:54.388Z,91135.44
2022-08-17T15:35:27.244Z,91136.91
2022-08-17T15:38:11.062Z,91140.31
2022-08-17T15:40:47.251Z,91139.03
2022-08-17T15:43:27.341Z,91150.28
2022-08-17T15:46:12.473Z,91142.81
2022-08-17T15:48:47.417Z,91145.03
2022-08-17T15:51:25.335Z,91143.78
2022-08-17T15:53:55.596Z,91146.78
2022-08-17T15:56:23.161Z,91146.78
2022-08-17T15:58:51.060Z,91154.34
2022-08-17T16:02:15.425Z,91147.88
2022-08-17T16:04:26.939Z,91152.00
2022-08-17T16:06:58.175Z,91124.59
2022-08-17T16:09:24.980Z,91152.44
2022-08-17T16:11:55.120Z,91152.72
2022-08-17T16:14:22.714Z,91153.91
2022-08-17T16:16:51.008Z,91164.91
2022-08-17T16:19:17.738Z,91160.19
2022-08-17T16:21:44.420Z,91155.97
2022-08-17T16:24:13.395Z,91161.56
2022-08-17T16:26:42.110Z,91162.34
2022-08-17T16:29:09.116Z,91166.38
2022-08-17T16:31:37.694Z,91168.63
2022-08-17T16:34:17.388Z,91165.38
2022-08-17T16:36:55.385Z,91170.63
2022-08-17T16:39:27.874Z,91174.31
2022-08-17T16:41:56.198Z,91169.97
2022-08-17T16:44:23.292Z,91178.34
2022-08-17T16:46:50.427Z,91163.94
2022-08-17T16:49:35.921Z,91168.03
2022-08-17T16:52:07.075Z,91183.16
2022-08-17T16:54:35.477Z,91188.66
2022-08-17T16:57:05.450Z,91174.88
2022-08-17T16:59:40.298Z,91187.81
2022-08-17T17:02:11.809Z,91195.41
2022-08-17T17:05:07.357Z,91199.44
2022-08-17T17:07:38.173Z,91205.28
2022-08-17T17:10:11.728Z,91203.53
2022-08-17T17:13:01.130Z,91206.53
2022-08-17T17:15:30.917Z,91218.13
2022-08-17T17:18:06.909Z,91216.94
2022-08-17T17:20:43.199Z,91209.78
2022-08-17T17:23:34.008Z,91222.00
2022-08-17T17:26:22.331Z,91224.34
2022-08-17T17:29:08.107Z,91224.03
2022-08-17T17:32:09.575Z,91227.75
2022-08-17T17:34:39.025Z,91219.25
2022-08-17T17:37:12.916Z,91242.69
2022-08-17T17:40:06.299Z,91239.88
2022-08-17T17:42:34.679Z,91236.88
2022-08-17T17:45:23.423Z,91248.75
2022-08-17T17:47:50.787Z,91251.50
2022-08-17T17:50:20.581Z,91253.78
2022-08-17T17:53:02.194Z,91262.63
2022-08-17T17:55:39.072Z,91250.44
2022-08-17T17:58:27.183Z,91259.38
2022-08-17T18:01:07.509Z,91270.31
2022-08-17T18:04:11.204Z,91274.38
2022-08-17T18:07:22.975Z,91279.88
2022-08-17T18:10:19.558Z,91289.06
2022-08-17T18:13:31.206Z,91282.78
2022-08-17T18:16:03.650Z,91296.03
2022-08-17T18:18:38.159Z,91298.31
2022-08-17T18:21:15.657Z,91296.34
2022-08-17T18:23:58.036Z,91298.91
2022-08-17T18:26:33.749Z,91306.91
2022-08-17T18:29:03.425Z,91301.84
2022-08-17T18:31:30.277Z,91302.69
2022-08-17T18:37:37.054Z,91305.78
2022-08-17T18:40:22.560Z,91306.22
2022-08-17T18:42:55.007Z,91311.34
2022-08-17T18:45:35.902Z,91316.00
2022-08-17T18:48:03.122Z,91312.25
2022-08-17T18:50:41.246Z,91317.16
2022-08-17T18:53:33.520Z,91320.97
2022-08-17T18:56:18.008Z,91322.44
2022-08-17T18:58:53.902Z,91322.34
2022-08-17T19:01:47.173Z,91329.16
2022-08-17T19:04:34.622Z,91325.06
2022-08-17T19:07:23.873Z,91329.94
2022-08-17T19:09:58.858Z,91323.38
2022-08-17T19:12:46.059Z,91333.16
2022-08-17T19:15:17.738Z,91333.78
2022-08-17T19:17:52.277Z,91343.09
2022-08-17T19:20:53.882Z,91344.00
2022-08-17T19:23:54.207Z,91335.63
2022-08-17T19:26:54.283Z,91343.91
2022-08-17T19:29:41.556Z,91353.31
2022-08-17T19:32:10.559Z,91330.50
2022-08-17T19:34:39.173Z,91344.75
2022-08-17T19:37:10.156Z,91352.75
2022-08-17T19:39:49.094Z,91354.63
2022-08-17T19:42:47.579Z,91354.03
2022-08-17T19:45:35.067Z,91349.31
2022-08-17T19:48:20.691Z,91361.28
2022-08-17T19:50:48.415Z,91363.53
2022-08-17T19:54:03.888Z,91368.84
2022-08-17T19:57:04.141Z,91358.28
2022-08-17T20:00:18.835Z,91365.00
2022-08-17T20:03:22.137Z,91366.44
2022-08-17T20:06:12.041Z,91368.75
2022-08-17T20:08:59.287Z,91367.31
2022-08-17T20:11:38.511Z,91365.75
2022-08-17T20:14:13.291Z,91367.91
2022-08-17T20:16:40.109Z,91360.69
2022-08-17T20:19:16.501Z,91366.09
2022-08-17T20:21:56.249Z,91370.66
2022-08-17T20:24:28.147Z,91360.25
2022-08-17T20:27:11.825Z,91374.13
2022-08-17T20:30:03.892Z,91363.09
2022-08-17T20:32:36.681Z,91373.00
2022-08-17T20:35:23.900Z,91370.28
2022-08-17T20:38:13.584Z,91381.59
2022-08-17T20:41:03.890Z,91385.88
2022-08-17T20:43:33.589Z,91382.41
2022-08-17T20:46:03.318Z,91379.75
2022-08-17T20:48:38.497Z,91381.06
2022-08-17T20:51:28.668Z,91380.59
2022-08-17T20:53:55.684Z,91391.53
2022-08-17T20:56:44.667Z,91383.50
2022-08-17T20:59:20.568Z,91388.41
2022-08-17T21:02:03.938Z,91381.28
2022-08-17T21:04:54.519Z,91377.72
2022-08-17T21:07:42.887Z,91382.16
2022-08-17T21:10:36.734Z,91384.88
2022-08-17T21:13:15.745Z,91381.41
2022-08-17T21:16:01.351Z,91381.91
2022-08-17T21:18:40.784Z,91391.53
2022-08-17T21:21:46.595Z,91380.28
2022-08-17T21:24:17.880Z,91386.38
2022-08-17T21:27:00.251Z,91383.50
2022-08-17T21:29:32.782Z,91384.31
2022-08-17T21:32:03.933Z,91388.06
2022-08-17T21:34:33.019Z,91385.44
2022-08-17T21:37:25.147Z,91389.91
2022-08-17T21:40:18.263Z,91396.50
2022-08-17T21:42:53.031Z,91402.13
2022-08-17T21:45:22.941Z,91396.44
2022-08-17T21:48:06.792Z,91395.00
2022-08-17T21:50:34.434Z,91402.06
2022-08-17T21:53:03.101Z,91391.13
2022-08-17T21:55:32.581Z,91396.69
2022-08-17T21:58:14.917Z,91394.03
2022-08-17T22:00:44.723Z,91393.69
2022-08-17T22:03:24.357Z,91395.31
2022-08-17T22:05:51.571Z,91397.16
2022-08-17T22:08:25.158Z,91394.50
2022-08-17T22:11:03.510Z,91379.09
2022-08-17T22:13:30.302Z,91379.84
2022-08-17T22:16:28.098Z,91388.44
2022-08-17T22:18:58.405Z,91394.09
2022-08-17T22:21:25.576Z,91397.53
2022-08-17T22:24:15.373Z,91394.59
2022-08-17T22:27:00.337Z,91400.09
2022-08-17T22:29:58.196Z,91404.34
2022-08-17T22:32:40.042Z,91402.44
2022-08-17T22:35:32.890Z,91397.94
2022-08-17T22:38:25.680Z,91403.34
2022-08-17T22:40:57.033Z,91396.47
2022-08-17T22:43:28.853Z,91403.56
2022-08-17T22:45:59.219Z,91403.81
2022-08-17T22:48:28.475Z,91396.53
2022-08-17T22:51:13.683Z,91398.06
2022-08-17T22:54:13.462Z,91401.84
2022-08-17T22:57:26.483Z,91399.69
2022-08-17T22:59:55.733Z,91388.75
2022-08-17T23:02:32.009Z,91380.41
2022-08-17T23:05:12.930Z,91399.19
2022-08-17T23:07:40.571Z,91399.19
2022-08-17T23:10:10.101Z,91393.38
2022-08-17T23:12:39.909Z,91393.41
2022-08-17T23:15:14.405Z,91393.47
2022-08-17T23:17:42.178Z,91388.31
2022-08-17T23:20:14.265Z,91395.06
2022-08-17T23:22:51.081Z,91385.16
2022-08-17T23:25:30.741Z,91389.66
2022-08-17T23:28:01.261Z,91381.72
2022-08-17T23:30:30.368Z,91378.31
2022-08-17T23:33:02.496Z,91380.50
2022-08-17T23:35:39.771Z,91381.25
2022-08-17T23:38:11.322Z,91373.72
2022-08-17T23:40:39.707Z,91386.56
2022-08-17T23:43:17.393Z,91376.72
2022-08-17T23:45:54.165Z,91375.97
2022-08-17T23:48:36.089Z,91374.88
2022-08-17T23:51:25.897Z,91338.56
2022-08-17T23:53:58.213Z,91376.78
2022-08-17T23:56:27.925Z,91376.00
2022-08-17T23:58:55.710Z,91379.13
